Grundy, VA (24614)

5:47 AM EST on January 24, 2017 (GMT -0500)
Elkhorn City | | Change Station

Elev 1000 ft 37.30 °N, 82.35 °W | Updated 23 seconds ago

Overcast
Overcast
45.1 °F
Feels Like 45 °F
N
0.0
Wind Variable Wind from ENE
Gusts 0.0 mph

Today
High -- | Low -- °F
--% Chance of Precip.
Yesterday
High -- | Low -- °F
Precip. -- in
Pressure 29.64 in
Visibility 7.0 miles
Clouds Overcast 600 ft
Windchill 45 °F
Dew Point 42 °F
Humidity 87%
Rainfall 0.14 in
Snow Depth Not available.
7:37 AM 5:44 PM
Waning Crescent, 12% visible
METAR KJFZ 241035Z AUTO 31008G20KT 270V330 7SM -DZ OVC006 04/04 A2964 RMK AO2 T00400040
Pressure 29.64 in
Visibility 7.0 miles
Clouds Overcast 600 ft
Windchill 45 °F
Dew Point 42 °F
Humidity 87%
Rainfall 0.14 in
Snow Depth Not available.
7:37 AM 5:44 PM
Waning Crescent, 12% visible
METAR KJFZ 241035Z AUTO 31008G20KT 270V330 7SM -DZ OVC006 04/04 A2964 RMK AO2 T00400040

Get Your Daily Forecast Email!

Thanks for signing up!

Be on the lookout for a verification email in your inbox.

You'll start receiving the daily forecast at 8 AM.

×

10-Day Weather Forecast

Almanac

Astronomy

Jan. 24, 2017 Rise Set
Actual Time
Civil Twilight
Nautical Twilight
Astronomical Twilight
Moon
Length of Visible Light
Length of Day
Tomorrow will be .
, % of the Moon is Illuminated

Today's Extremes

State Highs State Lows

Community

WunderPhotos

Upload Photos

1,962,540 photos uploaded!

WunderBlog® & News

Nearby

Air Quality

  Air Quality AQ Index Pollutant
Not available.

Snow Depth

Station Depth Elevation

Earthquake Activity

City Distance Mag. Time & Date
Minimum magnitude displayed is 2.5.

Coastal Water Temperatures

Place Temperature

Stations

Nearby Weather Stations

Station Location Temp. Windchill Dew Point Humidity Wind Precip. Elev Updated Type
                   

Watches & Warnings

There are currently no watches in effect.